RYR14D EGPH-EICK
Flight info
| Callsign | RYR14D |
|---|---|
| Flight time | 1h 4m |
| Altitude | 36000 |
| Route | GOSAM DCT TRN DCT NELBO DCT NIMAT DCT DUB DCT TISMO TISMO1G |
| Aircraft | A320/M-SDE3FGHIRWY/LB1 |
Departure
| Time | 2026-04-26 17:39 |
|---|---|
| Airport | Edinburgh Airport (EGPH) |
Arrival
| Time | 2026-04-26 18:43 |
|---|---|
| Airport | Cork International Airport (EICK) |
| Time | Latitude | Longitude | Altitude | Speed | Heading |
|---|---|---|---|---|---|
| 2026-04-26 17:04 | 55.94703 | -3.36858 | 105 ft | 0 kts | 269° |
| 2026-04-26 17:24 | 55.94703 | -3.36863 | 105 ft | 0 kts | 269° |
| 2026-04-26 17:24 | 55.94703 | -3.36866 | 105 ft | 0 kts | 269° |
| 2026-04-26 17:25 | 55.94703 | -3.36861 | 105 ft | 2 kts | 270° |
| 2026-04-26 17:25 | 55.94701 | -3.36835 | 106 ft | 2 kts | 291° |
| 2026-04-26 17:25 | 55.94693 | -3.36811 | 106 ft | 2 kts | 309° |
| 2026-04-26 17:25 | 55.94683 | -3.36793 | 106 ft | 2 kts | 325° |
| 2026-04-26 17:26 | 55.94670 | -3.36781 | 106 ft | 2 kts | 342° |
| 2026-04-26 17:26 | 55.94655 | -3.36776 | 106 ft | 2 kts | 359° |
| 2026-04-26 17:26 | 55.94645 | -3.36777 | 107 ft | 0 kts | 2° |
| 2026-04-26 17:26 | 55.94644 | -3.36777 | 107 ft | 0 kts | 1° |
| 2026-04-26 17:31 | 55.94645 | -3.36777 | 106 ft | 2 kts | 1° |
| 2026-04-26 17:31 | 55.94649 | -3.36776 | 106 ft | 0 kts | 1° |
| 2026-04-26 17:32 | 55.94717 | -3.36774 | 105 ft | 11 kts | 0° |
| 2026-04-26 17:32 | 55.94806 | -3.36774 | 104 ft | 13 kts | 0° |
| 2026-04-26 17:32 | 55.94903 | -3.36789 | 102 ft | 12 kts | 327° |
| 2026-04-26 17:33 | 55.94923 | -3.36909 | 101 ft | 6 kts | 250° |
| 2026-04-26 17:33 | 55.94901 | -3.36972 | 101 ft | 5 kts | 237° |
| 2026-04-26 17:33 | 55.94868 | -3.37061 | 102 ft | 13 kts | 237° |
| 2026-04-26 17:34 | 55.94732 | -3.37460 | 102 ft | 0 kts | 238° |
| 2026-04-26 17:34 | 55.94685 | -3.37596 | 103 ft | 24 kts | 239° |
| 2026-04-26 17:34 | 55.94578 | -3.37912 | 107 ft | 33 kts | 239° |
| 2026-04-26 17:34 | 55.94451 | -3.38281 | 111 ft | 36 kts | 238° |
| 2026-04-26 17:35 | 55.94387 | -3.38465 | 112 ft | 13 kts | 239° |
| 2026-04-26 17:35 | 55.94319 | -3.38679 | 113 ft | 22 kts | 240° |
| 2026-04-26 17:35 | 55.94308 | -3.38714 | 114 ft | 5 kts | 240° |
| 2026-04-26 17:35 | 55.94289 | -3.38847 | 116 ft | 15 kts | 296° |
| 2026-04-26 17:36 | 55.94320 | -3.38908 | 116 ft | 0 kts | 323° |
| 2026-04-26 17:36 | 55.94368 | -3.38957 | 115 ft | 13 kts | 340° |
| 2026-04-26 17:37 | 55.94439 | -3.38912 | 114 ft | 0 kts | 56° |
| 2026-04-26 17:38 | 55.94442 | -3.38906 | 114 ft | 10 kts | 56° |
| 2026-04-26 17:38 | 55.94640 | -3.38351 | 108 ft | 93 kts | 60° |
| 2026-04-26 17:38 | 55.95092 | -3.37018 | 107 ft | 154 kts | 60° |
| 2026-04-26 17:38 | 55.95665 | -3.35201 | 456 ft | 179 kts | 60° |
| 2026-04-26 17:39 | 55.96366 | -3.33243 | 1024 ft | 197 kts | 47° |
| 2026-04-26 17:39 | 55.97398 | -3.31646 | 1890 ft | 200 kts | 40° |
| 2026-04-26 17:39 | 55.98464 | -3.30049 | 2642 ft | 208 kts | 41° |
| 2026-04-26 17:39 | 55.99641 | -3.28366 | 3132 ft | 229 kts | 30° |
| 2026-04-26 17:40 | 56.01221 | -3.27454 | 3563 ft | 251 kts | 2° |
| 2026-04-26 17:40 | 56.02384 | -3.27602 | 3904 ft | 261 kts | 344° |
| 2026-04-26 17:40 | 56.04423 | -3.29832 | 4923 ft | 265 kts | 308° |
| 2026-04-26 17:40 | 56.05233 | -3.32731 | 5559 ft | 262 kts | 280° |
| 2026-04-26 17:41 | 56.05181 | -3.35925 | 5905 ft | 263 kts | 253° |
| 2026-04-26 17:41 | 56.04284 | -3.38732 | 6014 ft | 265 kts | 227° |
| 2026-04-26 17:41 | 56.02989 | -3.41065 | 6020 ft | 265 kts | 226° |
| 2026-04-26 17:41 | 56.01836 | -3.43654 | 6023 ft | 265 kts | 246° |
| 2026-04-26 17:42 | 56.01279 | -3.46756 | 6039 ft | 264 kts | 257° |
| 2026-04-26 17:42 | 56.00842 | -3.49937 | 6026 ft | 264 kts | 256° |
| 2026-04-26 17:42 | 56.00403 | -3.53095 | 6027 ft | 265 kts | 256° |
| 2026-04-26 17:42 | 55.99955 | -3.56304 | 6027 ft | 265 kts | 256° |
| 2026-04-26 17:43 | 55.99580 | -3.58960 | 6029 ft | 265 kts | 256° |
| 2026-04-26 17:43 | 55.99162 | -3.61904 | 6022 ft | 265 kts | 256° |
| 2026-04-26 17:43 | 55.98844 | -3.64134 | 6028 ft | 266 kts | 256° |
| 2026-04-26 17:43 | 55.98385 | -3.67348 | 6022 ft | 266 kts | 255° |
| 2026-04-26 17:44 | 55.97932 | -3.70519 | 6021 ft | 267 kts | 255° |
| 2026-04-26 17:44 | 55.97477 | -3.73701 | 6021 ft | 266 kts | 255° |
| 2026-04-26 17:44 | 55.97013 | -3.76925 | 6019 ft | 267 kts | 255° |
| 2026-04-26 17:44 | 55.96550 | -3.80123 | 6015 ft | 267 kts | 255° |
| 2026-04-26 17:45 | 55.96089 | -3.83300 | 6022 ft | 267 kts | 255° |
| 2026-04-26 17:45 | 55.95620 | -3.86531 | 6008 ft | 267 kts | 255° |
| 2026-04-26 17:45 | 55.95152 | -3.89747 | 6012 ft | 268 kts | 255° |
| 2026-04-26 17:45 | 55.94690 | -3.92923 | 6012 ft | 268 kts | 255° |
| 2026-04-26 17:46 | 55.94207 | -3.96159 | 6013 ft | 268 kts | 251° |
| 2026-04-26 17:46 | 55.93460 | -3.99164 | 6008 ft | 269 kts | 244° |
| 2026-04-26 17:46 | 55.92643 | -4.02168 | 6012 ft | 268 kts | 242° |
| 2026-04-26 17:46 | 55.91484 | -4.04717 | 6018 ft | 271 kts | 216° |
| 2026-04-26 17:47 | 55.89929 | -4.06608 | 6006 ft | 270 kts | 214° |
| 2026-04-26 17:47 | 55.88891 | -4.07866 | 6002 ft | 270 kts | 214° |
| 2026-04-26 17:47 | 55.86832 | -4.10365 | 6002 ft | 270 kts | 214° |
| 2026-04-26 17:47 | 55.85283 | -4.12243 | 6008 ft | 270 kts | 214° |
| 2026-04-26 17:48 | 55.83734 | -4.14120 | 5997 ft | 269 kts | 214° |
| 2026-04-26 17:48 | 55.82199 | -4.15979 | 5999 ft | 270 kts | 214° |
| 2026-04-26 17:48 | 55.80647 | -4.17857 | 6000 ft | 270 kts | 214° |
| 2026-04-26 17:48 | 55.79094 | -4.19735 | 6001 ft | 269 kts | 214° |
| 2026-04-26 17:49 | 55.77573 | -4.21596 | 6211 ft | 270 kts | 216° |
| 2026-04-26 17:49 | 55.76026 | -4.23527 | 6778 ft | 275 kts | 215° |
| 2026-04-26 17:49 | 55.74458 | -4.25483 | 7556 ft | 277 kts | 215° |
| 2026-04-26 17:49 | 55.72900 | -4.27421 | 8318 ft | 278 kts | 215° |
| 2026-04-26 17:50 | 55.71325 | -4.29378 | 9070 ft | 281 kts | 215° |
| 2026-04-26 17:50 | 55.69719 | -4.31371 | 9784 ft | 283 kts | 215° |
| 2026-04-26 17:50 | 55.68108 | -4.33367 | 10460 ft | 286 kts | 215° |
| 2026-04-26 17:50 | 55.66447 | -4.35423 | 10900 ft | 301 kts | 215° |
| 2026-04-26 17:51 | 55.64682 | -4.37603 | 11169 ft | 318 kts | 215° |
| 2026-04-26 17:51 | 55.62826 | -4.39893 | 11506 ft | 333 kts | 215° |
| 2026-04-26 17:51 | 55.60926 | -4.42235 | 11989 ft | 340 kts | 215° |
| 2026-04-26 17:51 | 55.58990 | -4.44620 | 12622 ft | 343 kts | 215° |
| 2026-04-26 17:52 | 55.57030 | -4.47032 | 13201 ft | 344 kts | 215° |
| 2026-04-26 17:52 | 55.55066 | -4.49446 | 13779 ft | 347 kts | 215° |
| 2026-04-26 17:52 | 55.53085 | -4.51878 | 14327 ft | 350 kts | 215° |
| 2026-04-26 17:52 | 55.51085 | -4.54329 | 14908 ft | 352 kts | 215° |
| 2026-04-26 17:53 | 55.49071 | -4.56794 | 15452 ft | 355 kts | 215° |
| 2026-04-26 17:53 | 55.47024 | -4.59295 | 15965 ft | 358 kts | 215° |
| 2026-04-26 17:53 | 55.44981 | -4.61788 | 16472 ft | 361 kts | 216° |
| 2026-04-26 17:54 | 55.40866 | -4.66800 | 17477 ft | 365 kts | 215° |
| 2026-04-26 17:54 | 55.38783 | -4.69333 | 17960 ft | 368 kts | 215° |
| 2026-04-26 17:54 | 55.36676 | -4.71891 | 18467 ft | 370 kts | 215° |
| 2026-04-26 17:54 | 55.34546 | -4.74473 | 18911 ft | 373 kts | 215° |
| 2026-04-26 17:55 | 55.32402 | -4.77050 | 19370 ft | 376 kts | 213° |
| 2026-04-26 17:55 | 55.30101 | -4.79152 | 19820 ft | 380 kts | 202° |
| 2026-04-26 17:55 | 55.27617 | -4.80757 | 20236 ft | 383 kts | 201° |
| 2026-04-26 17:55 | 55.25097 | -4.82374 | 20670 ft | 385 kts | 201° |
| 2026-04-26 17:56 | 55.22610 | -4.83971 | 21068 ft | 387 kts | 201° |
| 2026-04-26 17:56 | 55.17536 | -4.87222 | 21876 ft | 391 kts | 201° |
| 2026-04-26 17:57 | 55.12411 | -4.90496 | 22643 ft | 395 kts | 201° |
| 2026-04-26 17:57 | 55.09852 | -4.92127 | 23005 ft | 397 kts | 201° |
| 2026-04-26 17:57 | 55.07263 | -4.93775 | 23371 ft | 398 kts | 201° |
| 2026-04-26 17:57 | 55.04649 | -4.95437 | 23749 ft | 400 kts | 201° |
| 2026-04-26 17:58 | 54.96779 | -5.00425 | 24764 ft | 406 kts | 201° |
| 2026-04-26 17:59 | 54.91495 | -5.03762 | 25382 ft | 410 kts | 201° |
| 2026-04-26 17:59 | 54.88810 | -5.05455 | 25707 ft | 412 kts | 201° |
| 2026-04-26 17:59 | 54.86135 | -5.07138 | 25992 ft | 414 kts | 201° |
| 2026-04-26 17:59 | 54.83414 | -5.08848 | 26307 ft | 416 kts | 201° |
| 2026-04-26 18:00 | 54.80717 | -5.10541 | 26598 ft | 418 kts | 201° |
| 2026-04-26 18:00 | 54.77964 | -5.12266 | 26895 ft | 419 kts | 201° |
| 2026-04-26 18:00 | 54.75246 | -5.13967 | 27164 ft | 421 kts | 201° |
| 2026-04-26 18:00 | 54.72485 | -5.15692 | 27464 ft | 423 kts | 201° |
| 2026-04-26 18:01 | 54.69712 | -5.17423 | 27726 ft | 425 kts | 201° |
| 2026-04-26 18:01 | 54.66931 | -5.19155 | 27989 ft | 426 kts | 201° |
| 2026-04-26 18:01 | 54.64148 | -5.20887 | 28260 ft | 428 kts | 201° |
| 2026-04-26 18:01 | 54.61374 | -5.22610 | 28510 ft | 429 kts | 201° |
| 2026-04-26 18:02 | 54.58560 | -5.24356 | 28768 ft | 431 kts | 201° |
| 2026-04-26 18:02 | 54.56683 | -5.25519 | 28941 ft | 432 kts | 201° |
| 2026-04-26 18:02 | 54.52940 | -5.27835 | 29246 ft | 434 kts | 201° |
| 2026-04-26 18:02 | 54.50098 | -5.29619 | 29489 ft | 435 kts | 203° |
| 2026-04-26 18:03 | 54.47322 | -5.31688 | 29707 ft | 436 kts | 207° |
| 2026-04-26 18:03 | 54.44633 | -5.33971 | 29952 ft | 437 kts | 207° |
| 2026-04-26 18:03 | 54.41884 | -5.36295 | 30173 ft | 438 kts | 207° |
| 2026-04-26 18:03 | 54.39161 | -5.38594 | 30385 ft | 439 kts | 207° |
| 2026-04-26 18:04 | 54.36444 | -5.40885 | 30596 ft | 440 kts | 207° |
| 2026-04-26 18:04 | 54.33687 | -5.43207 | 30799 ft | 442 kts | 207° |
| 2026-04-26 18:04 | 54.30931 | -5.45524 | 31032 ft | 442 kts | 207° |
| 2026-04-26 18:05 | 54.25452 | -5.50122 | 31596 ft | 439 kts | 207° |
| 2026-04-26 18:05 | 54.22736 | -5.52396 | 31857 ft | 439 kts | 207° |
| 2026-04-26 18:05 | 54.19997 | -5.54685 | 32123 ft | 438 kts | 207° |
| 2026-04-26 18:05 | 54.17289 | -5.56946 | 32360 ft | 437 kts | 207° |
| 2026-04-26 18:06 | 54.14561 | -5.59220 | 32602 ft | 437 kts | 207° |
| 2026-04-26 18:06 | 54.11830 | -5.61493 | 32833 ft | 436 kts | 207° |
| 2026-04-26 18:06 | 54.09145 | -5.63724 | 33055 ft | 436 kts | 207° |
| 2026-04-26 18:06 | 54.06414 | -5.65990 | 33269 ft | 436 kts | 206° |
| 2026-04-26 18:07 | 54.03690 | -5.68248 | 33486 ft | 435 kts | 206° |
| 2026-04-26 18:07 | 54.00993 | -5.70479 | 33697 ft | 435 kts | 206° |
| 2026-04-26 18:07 | 53.98284 | -5.72725 | 33916 ft | 434 kts | 207° |
| 2026-04-26 18:07 | 53.96517 | -5.74375 | 34042 ft | 434 kts | 211° |
| 2026-04-26 18:08 | 53.93247 | -5.78185 | 34336 ft | 432 kts | 216° |
| 2026-04-26 18:08 | 53.90818 | -5.81169 | 34549 ft | 431 kts | 216° |
| 2026-04-26 18:08 | 53.88370 | -5.84168 | 34753 ft | 430 kts | 216° |
| 2026-04-26 18:08 | 53.85978 | -5.87092 | 34934 ft | 430 kts | 216° |
| 2026-04-26 18:09 | 53.83554 | -5.90053 | 35104 ft | 429 kts | 216° |
| 2026-04-26 18:09 | 53.81082 | -5.93067 | 35250 ft | 429 kts | 216° |
| 2026-04-26 18:09 | 53.78725 | -5.95938 | 35432 ft | 428 kts | 216° |
| 2026-04-26 18:09 | 53.76310 | -5.98875 | 35569 ft | 428 kts | 216° |
| 2026-04-26 18:10 | 53.73897 | -6.01805 | 35740 ft | 427 kts | 216° |
| 2026-04-26 18:10 | 53.71486 | -6.04730 | 35878 ft | 427 kts | 216° |
| 2026-04-26 18:10 | 53.69104 | -6.07614 | 36010 ft | 427 kts | 216° |
| 2026-04-26 18:10 | 53.66683 | -6.10542 | 36125 ft | 428 kts | 216° |
| 2026-04-26 18:11 | 53.64264 | -6.13463 | 36247 ft | 428 kts | 216° |
| 2026-04-26 18:11 | 53.59453 | -6.19261 | 36281 ft | 427 kts | 216° |
| 2026-04-26 18:12 | 53.54657 | -6.25023 | 36279 ft | 425 kts | 216° |
| 2026-04-26 18:12 | 53.49842 | -6.30815 | 36279 ft | 426 kts | 218° |
| 2026-04-26 18:13 | 53.45181 | -6.36864 | 36278 ft | 426 kts | 218° |
| 2026-04-26 18:13 | 53.40528 | -6.42893 | 36277 ft | 425 kts | 219° |
| 2026-04-26 18:14 | 53.35862 | -6.48924 | 36277 ft | 425 kts | 219° |
| 2026-04-26 18:14 | 53.31178 | -6.54961 | 36273 ft | 425 kts | 219° |
| 2026-04-26 18:15 | 53.26522 | -6.60944 | 36273 ft | 424 kts | 219° |
| 2026-04-26 18:15 | 53.21844 | -6.66940 | 36265 ft | 424 kts | 218° |
| 2026-04-26 18:16 | 53.17186 | -6.72893 | 36262 ft | 424 kts | 218° |
| 2026-04-26 18:16 | 53.10213 | -6.81773 | 36260 ft | 415 kts | 218° |
| 2026-04-26 18:17 | 53.05688 | -6.87516 | 36174 ft | 408 kts | 218° |
| 2026-04-26 18:17 | 53.03453 | -6.90345 | 36057 ft | 399 kts | 218° |
| 2026-04-26 18:17 | 53.01295 | -6.93074 | 35907 ft | 389 kts | 218° |
| 2026-04-26 18:18 | 52.99165 | -6.95764 | 35754 ft | 380 kts | 219° |
| 2026-04-26 18:18 | 52.97093 | -6.98377 | 35611 ft | 371 kts | 219° |
| 2026-04-26 18:18 | 52.95083 | -7.00909 | 35460 ft | 361 kts | 219° |
| 2026-04-26 18:18 | 52.93093 | -7.03413 | 35227 ft | 355 kts | 219° |
| 2026-04-26 18:19 | 52.91146 | -7.05861 | 34913 ft | 352 kts | 219° |
| 2026-04-26 18:19 | 52.89227 | -7.08269 | 34561 ft | 352 kts | 219° |
| 2026-04-26 18:19 | 52.87282 | -7.10709 | 34178 ft | 349 kts | 219° |
| 2026-04-26 18:19 | 52.85370 | -7.13103 | 33819 ft | 345 kts | 219° |
| 2026-04-26 18:20 | 52.83456 | -7.15499 | 33447 ft | 342 kts | 219° |
| 2026-04-26 18:20 | 52.81578 | -7.17847 | 33078 ft | 339 kts | 219° |
| 2026-04-26 18:20 | 52.79733 | -7.20151 | 32714 ft | 335 kts | 219° |
| 2026-04-26 18:20 | 52.78488 | -7.21703 | 32467 ft | 333 kts | 219° |
| 2026-04-26 18:21 | 52.76045 | -7.24747 | 31965 ft | 329 kts | 219° |
| 2026-04-26 18:21 | 52.74229 | -7.27008 | 31511 ft | 328 kts | 218° |
| 2026-04-26 18:21 | 52.72433 | -7.29242 | 31032 ft | 328 kts | 218° |
| 2026-04-26 18:21 | 52.70612 | -7.31504 | 30543 ft | 328 kts | 218° |
| 2026-04-26 18:22 | 52.68792 | -7.33762 | 30041 ft | 328 kts | 218° |
| 2026-04-26 18:22 | 52.66978 | -7.36009 | 29552 ft | 328 kts | 218° |
| 2026-04-26 18:22 | 52.65161 | -7.38260 | 29049 ft | 327 kts | 218° |
| 2026-04-26 18:22 | 52.63347 | -7.40503 | 28548 ft | 327 kts | 218° |
| 2026-04-26 18:23 | 52.61546 | -7.42729 | 27996 ft | 329 kts | 218° |
| 2026-04-26 18:23 | 52.59708 | -7.44998 | 27440 ft | 330 kts | 218° |
| 2026-04-26 18:23 | 52.57887 | -7.47243 | 26885 ft | 331 kts | 218° |
| 2026-04-26 18:23 | 52.56042 | -7.49515 | 26324 ft | 332 kts | 217° |
| 2026-04-26 18:24 | 52.54192 | -7.51791 | 25767 ft | 334 kts | 217° |
| 2026-04-26 18:24 | 52.52358 | -7.54046 | 25217 ft | 335 kts | 217° |
| 2026-04-26 18:24 | 52.50493 | -7.56335 | 24665 ft | 336 kts | 217° |
| 2026-04-26 18:24 | 52.48630 | -7.58620 | 24117 ft | 337 kts | 217° |
| 2026-04-26 18:25 | 52.46755 | -7.60918 | 23568 ft | 336 kts | 217° |
| 2026-04-26 18:25 | 52.44891 | -7.63199 | 23047 ft | 333 kts | 217° |
| 2026-04-26 18:25 | 52.43070 | -7.65426 | 22530 ft | 330 kts | 216° |
| 2026-04-26 18:25 | 52.41246 | -7.67652 | 22010 ft | 327 kts | 216° |
| 2026-04-26 18:26 | 52.39420 | -7.69879 | 21485 ft | 324 kts | 216° |
| 2026-04-26 18:26 | 52.37640 | -7.72049 | 20969 ft | 322 kts | 216° |
| 2026-04-26 18:26 | 52.35863 | -7.74211 | 20455 ft | 319 kts | 216° |
| 2026-04-26 18:26 | 52.34100 | -7.76355 | 19939 ft | 316 kts | 216° |
| 2026-04-26 18:27 | 52.32355 | -7.78474 | 19420 ft | 313 kts | 216° |
| 2026-04-26 18:27 | 52.30624 | -7.80576 | 18902 ft | 310 kts | 216° |
| 2026-04-26 18:27 | 52.28900 | -7.82665 | 18362 ft | 308 kts | 216° |
| 2026-04-26 18:27 | 52.27175 | -7.84754 | 17776 ft | 307 kts | 216° |
| 2026-04-26 18:28 | 52.25466 | -7.86822 | 17177 ft | 307 kts | 216° |
| 2026-04-26 18:28 | 52.23778 | -7.88861 | 16556 ft | 308 kts | 216° |
| 2026-04-26 18:28 | 52.22056 | -7.90940 | 15922 ft | 308 kts | 216° |
| 2026-04-26 18:28 | 52.20328 | -7.93024 | 15290 ft | 309 kts | 216° |
| 2026-04-26 18:29 | 52.18607 | -7.95098 | 14661 ft | 310 kts | 216° |
| 2026-04-26 18:29 | 52.16879 | -7.97179 | 14028 ft | 310 kts | 216° |
| 2026-04-26 18:29 | 52.15170 | -7.99234 | 13416 ft | 311 kts | 216° |
| 2026-04-26 18:29 | 52.13374 | -8.01167 | 12797 ft | 311 kts | 203° |
| 2026-04-26 18:30 | 52.11320 | -8.02193 | 12186 ft | 311 kts | 194° |
| 2026-04-26 18:30 | 52.09296 | -8.03022 | 8558 ft | 301 kts | 193° |
| 2026-04-26 18:30 | 52.07378 | -8.03824 | 8927 ft | 265 kts | 193° |
| 2026-04-26 18:30 | 52.05640 | -8.04552 | 8877 ft | 263 kts | 193° |
| 2026-04-26 18:31 | 52.03855 | -8.05271 | 8440 ft | 263 kts | 189° |
| 2026-04-26 18:31 | 52.02036 | -8.05381 | 8201 ft | 269 kts | 176° |
| 2026-04-26 18:31 | 52.00151 | -8.05144 | 7992 ft | 270 kts | 175° |
| 2026-04-26 18:31 | 51.98304 | -8.04878 | 7961 ft | 262 kts | 175° |
| 2026-04-26 18:32 | 51.96551 | -8.04627 | 7957 ft | 244 kts | 175° |
| 2026-04-26 18:32 | 51.94916 | -8.04392 | 7958 ft | 230 kts | 175° |
| 2026-04-26 18:32 | 51.93332 | -8.04163 | 7959 ft | 226 kts | 175° |
| 2026-04-26 18:32 | 51.91814 | -8.03945 | 7955 ft | 219 kts | 175° |
| 2026-04-26 18:33 | 51.90286 | -8.03725 | 7963 ft | 224 kts | 175° |
| 2026-04-26 18:33 | 51.88727 | -8.03501 | 7955 ft | 227 kts | 175° |
| 2026-04-26 18:33 | 51.87154 | -8.03277 | 7960 ft | 227 kts | 175° |
| 2026-04-26 18:33 | 51.85567 | -8.03052 | 7957 ft | 227 kts | 175° |
| 2026-04-26 18:34 | 51.83997 | -8.02828 | 7959 ft | 227 kts | 175° |
| 2026-04-26 18:34 | 51.82423 | -8.02605 | 7959 ft | 227 kts | 175° |
| 2026-04-26 18:34 | 51.80853 | -8.02383 | 7906 ft | 225 kts | 175° |
| 2026-04-26 18:34 | 51.79305 | -8.02164 | 7651 ft | 225 kts | 175° |
| 2026-04-26 18:35 | 51.77749 | -8.01943 | 7369 ft | 225 kts | 175° |
| 2026-04-26 18:35 | 51.76191 | -8.01722 | 7093 ft | 225 kts | 175° |
| 2026-04-26 18:35 | 51.74636 | -8.01502 | 6828 ft | 225 kts | 175° |
| 2026-04-26 18:35 | 51.73077 | -8.01473 | 6534 ft | 226 kts | 193° |
| 2026-04-26 18:36 | 51.71698 | -8.02615 | 6221 ft | 227 kts | 225° |
| 2026-04-26 18:36 | 51.70900 | -8.04784 | 5923 ft | 229 kts | 251° |
| 2026-04-26 18:36 | 51.70425 | -8.07231 | 5638 ft | 230 kts | 250° |
| 2026-04-26 18:36 | 51.69936 | -8.09695 | 5319 ft | 232 kts | 251° |
| 2026-04-26 18:37 | 51.69447 | -8.12178 | 5017 ft | 233 kts | 251° |
| 2026-04-26 18:37 | 51.68958 | -8.14664 | 4557 ft | 242 kts | 251° |
| 2026-04-26 18:37 | 51.68438 | -8.17308 | 3930 ft | 256 kts | 251° |
| 2026-04-26 18:37 | 51.67888 | -8.20098 | 3329 ft | 267 kts | 252° |
| 2026-04-26 18:38 | 51.67326 | -8.22953 | 2993 ft | 265 kts | 252° |
| 2026-04-26 18:38 | 51.66778 | -8.25733 | 2908 ft | 255 kts | 252° |
| 2026-04-26 18:38 | 51.66257 | -8.28370 | 2904 ft | 242 kts | 252° |
| 2026-04-26 18:38 | 51.65760 | -8.30881 | 2900 ft | 229 kts | 251° |
| 2026-04-26 18:39 | 51.65288 | -8.33259 | 2904 ft | 217 kts | 251° |
| 2026-04-26 18:39 | 51.64863 | -8.35546 | 2908 ft | 210 kts | 261° |
| 2026-04-26 18:39 | 51.65080 | -8.37711 | 2908 ft | 191 kts | 306° |
| 2026-04-26 18:39 | 51.66130 | -8.38958 | 2910 ft | 190 kts | 342° |
| 2026-04-26 18:40 | 51.67398 | -8.39580 | 2900 ft | 190 kts | 343° |
| 2026-04-26 18:40 | 51.68676 | -8.40114 | 2896 ft | 190 kts | 343° |
| 2026-04-26 18:40 | 51.69943 | -8.40747 | 2897 ft | 191 kts | 340° |
| 2026-04-26 18:40 | 51.71194 | -8.41459 | 2897 ft | 191 kts | 339° |
| 2026-04-26 18:41 | 51.72448 | -8.42202 | 2721 ft | 192 kts | 339° |
| 2026-04-26 18:41 | 51.73675 | -8.42928 | 2483 ft | 189 kts | 339° |
| 2026-04-26 18:41 | 51.74908 | -8.43658 | 2228 ft | 188 kts | 339° |
| 2026-04-26 18:41 | 51.76135 | -8.44384 | 1972 ft | 188 kts | 340° |
| 2026-04-26 18:42 | 51.77354 | -8.45105 | 1724 ft | 187 kts | 339° |
| 2026-04-26 18:42 | 51.78568 | -8.45823 | 1480 ft | 186 kts | 339° |
| 2026-04-26 18:42 | 51.79767 | -8.46534 | 1252 ft | 179 kts | 341° |
| 2026-04-26 18:42 | 51.80908 | -8.47209 | 999 ft | 171 kts | 338° |
| 2026-04-26 18:43 | 51.81998 | -8.47850 | 783 ft | 162 kts | 339° |
| 2026-04-26 18:43 | 51.83041 | -8.48470 | 545 ft | 157 kts | 341° |
| 2026-04-26 18:43 | 51.83997 | -8.49036 | 476 ft | 108 kts | 339° |
| 2026-04-26 18:43 | 51.84344 | -8.49241 | 488 ft | 0 kts | 341° |
| 2026-04-26 18:44 | 51.84378 | -8.49261 | 489 ft | 21 kts | 340° |
| 2026-04-26 18:44 | 51.84550 | -8.49368 | 492 ft | 34 kts | 340° |
| 2026-04-26 18:44 | 51.84655 | -8.49431 | 494 ft | 0 kts | 340° |
| 2026-04-26 18:44 | 51.84718 | -8.49465 | 494 ft | 7 kts | 343° |
| 2026-04-26 18:45 | 51.84734 | -8.49472 | 494 ft | 6 kts | 351° |
| 2026-04-26 18:45 | 51.84770 | -8.49442 | 496 ft | 5 kts | 57° |
| 2026-04-26 18:45 | 51.84779 | -8.49412 | 497 ft | 0 kts | 68° |
| 2026-04-26 18:46 | 51.84789 | -8.49372 | 499 ft | 8 kts | 67° |
| 2026-04-26 18:47 | 51.84803 | -8.49304 | 501 ft | 4 kts | 77° |
| 2026-04-26 18:47 | 51.84807 | -8.49280 | 502 ft | 0 kts | 78° |
| 2026-04-26 18:47 | 51.84819 | -8.49183 | 506 ft | 10 kts | 81° |
| 2026-04-26 18:47 | 51.84834 | -8.49103 | 510 ft | 4 kts | 70° |
| 2026-04-26 18:48 | 51.84839 | -8.49081 | 511 ft | 0 kts | 70° |
| 2026-04-26 18:49 | 51.84839 | -8.49080 | 511 ft | 0 kts | 70° |
| 2026-04-26 18:49 | 51.84843 | -8.49066 | 512 ft | 2 kts | 69° |
| 2026-04-26 18:49 | 51.84843 | -8.49065 | 512 ft | 0 kts | 69° |